createdAt,value
2018-03-20T00:00:53.568Z,89.10
2018-03-20T00:03:21.907Z,88.90
2018-03-20T00:05:50.313Z,89.10
2018-03-20T00:08:18.669Z,89.80
2018-03-20T00:10:47.015Z,89.90
2018-03-20T00:13:15.363Z,89.80
2018-03-20T00:15:43.732Z,90.00
2018-03-20T00:18:12.078Z,90.00
2018-03-20T00:20:40.435Z,90.10
2018-03-20T00:23:08.792Z,90.10
2018-03-20T00:25:37.228Z,90.10
2018-03-20T00:28:05.746Z,90.00
2018-03-20T00:30:34.584Z,90.10
2018-03-20T00:33:02.971Z,90.20
2018-03-20T00:35:31.500Z,90.10
2018-03-20T00:37:59.853Z,90.10
2018-03-20T00:40:28.195Z,90.10
2018-03-20T00:42:56.553Z,89.90
2018-03-20T00:45:25.025Z,90.00
2018-03-20T00:47:53.477Z,90.00
2018-03-20T00:50:21.815Z,89.60
2018-03-20T00:52:50.457Z,89.20
2018-03-20T00:55:18.826Z,88.90
2018-03-20T00:57:47.151Z,88.90
2018-03-20T01:00:15.509Z,88.60
2018-03-20T01:02:43.873Z,88.70
2018-03-20T01:05:12.259Z,88.20
2018-03-20T01:07:40.663Z,88.40
2018-03-20T01:10:09.009Z,88.10
2018-03-20T01:12:37.352Z,88.00
2018-03-20T01:15:05.758Z,88.20
2018-03-20T01:17:34.402Z,88.20
2018-03-20T01:20:02.761Z,88.10
2018-03-20T01:22:31.108Z,88.20
2018-03-20T01:24:59.458Z,87.70
2018-03-20T01:27:27.800Z,87.70
2018-03-20T01:29:56.143Z,87.60
2018-03-20T01:32:24.504Z,88.50
2018-03-20T01:34:52.853Z,89.00
2018-03-20T01:37:21.200Z,89.90
2018-03-20T01:39:49.548Z,91.20
2018-03-20T01:42:17.897Z,91.40
2018-03-20T01:44:46.247Z,91.60
2018-03-20T01:47:14.592Z,91.90
2018-03-20T01:49:42.953Z,92.20
2018-03-20T01:52:11.302Z,92.40
2018-03-20T01:54:39.674Z,92.70
2018-03-20T01:57:08.197Z,92.90
2018-03-20T01:59:36.879Z,93.40
2018-03-20T02:02:05.227Z,93.90
2018-03-20T02:04:33.563Z,94.20
2018-03-20T02:07:02.038Z,94.50
2018-03-20T02:09:30.380Z,94.50
2018-03-20T02:11:58.729Z,94.50
2018-03-20T02:14:27.105Z,94.50
2018-03-20T02:16:55.449Z,94.80
2018-03-20T02:19:23.808Z,95.10
2018-03-20T02:21:52.148Z,96.00
2018-03-20T02:24:20.508Z,96.10
2018-03-20T02:26:48.915Z,96.60
2018-03-20T02:29:17.649Z,97.30
2018-03-20T02:31:46.073Z,98.30
2018-03-20T02:34:15.177Z,99.10
2018-03-20T02:36:43.512Z,99.90
2018-03-20T02:39:11.946Z,99.90
2018-03-20T02:41:40.563Z,99.90
2018-03-20T02:44:08.915Z,99.90
2018-03-20T02:46:37.316Z,99.90
2018-03-20T02:49:05.641Z,99.90
2018-03-20T02:51:33.979Z,99.90
2018-03-20T02:54:03.074Z,99.90
2018-03-20T02:56:31.408Z,99.90
2018-03-20T02:59:00.233Z,99.90
2018-03-20T03:01:28.678Z,99.90
2018-03-20T03:03:57.204Z,99.90
2018-03-20T03:06:25.553Z,99.90
2018-03-20T03:08:54.018Z,99.90
2018-03-20T03:11:22.471Z,99.90
2018-03-20T03:13:50.867Z,99.90
2018-03-20T03:16:19.234Z,99.90
2018-03-20T03:18:47.576Z,99.90
2018-03-20T03:21:15.944Z,99.90
2018-03-20T03:23:44.316Z,99.90
2018-03-20T03:26:12.640Z,99.90
2018-03-20T03:28:40.998Z,99.90
2018-03-20T03:31:09.447Z,99.90
2018-03-20T03:33:37.791Z,99.90
2018-03-20T03:36:06.312Z,99.90
2018-03-20T03:38:34.671Z,99.90
2018-03-20T03:41:03.017Z,99.90
2018-03-20T03:43:31.383Z,99.90
2018-03-20T03:45:59.730Z,99.90
2018-03-20T03:48:28.126Z,99.90
2018-03-20T03:50:56.484Z,99.90
2018-03-20T03:53:24.932Z,99.90
2018-03-20T03:55:53.237Z,99.90
2018-03-20T03:58:21.575Z,99.90
2018-03-20T04:00:49.922Z,99.90
2018-03-20T04:03:18.286Z,99.90
2018-03-20T04:05:46.664Z,99.90
2018-03-20T04:08:15.081Z,99.90
2018-03-20T04:10:43.445Z,99.90
2018-03-20T04:13:12.048Z,99.90
2018-03-20T04:15:40.404Z,99.90
2018-03-20T04:18:09.002Z,99.90
2018-03-20T04:20:37.354Z,99.90
2018-03-20T04:23:05.693Z,99.90
2018-03-20T04:25:34.043Z,99.90
2018-03-20T04:28:02.396Z,99.90
2018-03-20T04:30:30.820Z,99.90
2018-03-20T04:32:59.196Z,99.90
2018-03-20T04:35:27.704Z,99.90
2018-03-20T04:37:56.034Z,99.90
2018-03-20T04:40:24.389Z,99.90
2018-03-20T04:42:52.749Z,99.90
2018-03-20T04:45:21.091Z,99.90
2018-03-20T04:47:49.890Z,99.90
2018-03-20T04:50:18.271Z,99.90
2018-03-20T04:52:46.908Z,99.90
2018-03-20T04:55:15.280Z,99.90
2018-03-20T04:57:43.632Z,99.90
2018-03-20T05:00:11.975Z,99.90
2018-03-20T05:02:40.449Z,99.90
2018-03-20T05:05:09.123Z,99.90
2018-03-20T05:07:37.488Z,99.90
2018-03-20T05:10:05.835Z,99.90
2018-03-20T05:12:34.198Z,99.90
2018-03-20T05:15:02.598Z,99.90
2018-03-20T05:17:30.916Z,99.90
2018-03-20T05:20:05.263Z,99.90
2018-03-20T05:22:39.424Z,99.90
2018-03-20T05:25:07.881Z,99.90
2018-03-20T05:27:36.538Z,99.90
2018-03-20T05:30:04.882Z,99.90
2018-03-20T05:32:33.220Z,99.90
2018-03-20T05:35:01.637Z,99.90
2018-03-20T05:37:30.581Z,99.90
2018-03-20T05:39:58.945Z,99.90
2018-03-20T05:42:27.291Z,99.90
2018-03-20T05:44:55.739Z,99.90
2018-03-20T05:47:29.770Z,99.90
2018-03-20T05:50:03.784Z,99.90
2018-03-20T05:52:32.626Z,99.90
2018-03-20T05:55:00.968Z,99.90
2018-03-20T05:57:29.324Z,99.90
2018-03-20T05:59:57.749Z,99.90
2018-03-20T06:02:26.705Z,99.90
2018-03-20T06:04:55.038Z,99.90
2018-03-20T06:07:23.409Z,99.90
2018-03-20T06:09:51.758Z,99.90
2018-03-20T06:12:20.192Z,99.90
2018-03-20T06:14:48.548Z,99.90
2018-03-20T06:17:17.132Z,99.90
2018-03-20T06:19:45.515Z,99.90
2018-03-20T06:22:13.863Z,99.90
2018-03-20T06:24:42.252Z,99.90
2018-03-20T06:27:10.630Z,99.90
2018-03-20T06:29:38.973Z,99.90
2018-03-20T06:32:07.346Z,99.90
2018-03-20T06:34:35.714Z,99.90
2018-03-20T06:37:04.685Z,99.90
2018-03-20T06:39:33.023Z,99.90
2018-03-20T06:42:01.368Z,99.90
2018-03-20T06:44:29.724Z,99.90
2018-03-20T06:46:58.064Z,99.90
2018-03-20T06:49:26.417Z,99.90
2018-03-20T06:51:54.760Z,99.90
2018-03-20T06:54:23.124Z,99.90
2018-03-20T06:56:51.496Z,99.90
2018-03-20T06:59:19.825Z,99.90
2018-03-20T07:01:48.172Z,99.90
2018-03-20T07:04:16.539Z,99.90
2018-03-20T07:06:45.179Z,99.90
2018-03-20T07:09:13.880Z,99.90
2018-03-20T07:11:42.226Z,99.90
2018-03-20T07:14:10.601Z,99.90
2018-03-20T07:16:38.955Z,99.90
2018-03-20T07:19:07.427Z,99.90
2018-03-20T07:21:35.801Z,99.90
2018-03-20T07:24:05.301Z,99.90
2018-03-20T07:26:33.788Z,99.90
2018-03-20T07:29:02.312Z,99.90
2018-03-20T07:31:30.803Z,99.90
2018-03-20T07:33:59.154Z,99.90
2018-03-20T07:36:27.531Z,99.90
2018-03-20T07:38:55.964Z,99.90
2018-03-20T07:41:24.295Z,99.90
2018-03-20T07:43:53.038Z,99.90
2018-03-20T07:46:21.425Z,99.90
2018-03-20T07:48:49.744Z,99.90
2018-03-20T07:51:18.200Z,99.90
2018-03-20T07:53:46.569Z,99.90
2018-03-20T07:56:14.917Z,99.90
2018-03-20T07:58:43.283Z,99.90
2018-03-20T08:01:11.908Z,99.90
2018-03-20T08:03:40.260Z,99.90
2018-03-20T08:06:08.606Z,99.90
2018-03-20T08:08:36.991Z,99.90
2018-03-20T08:11:05.312Z,99.90
2018-03-20T08:13:33.656Z,99.90
2018-03-20T08:16:02.010Z,99.90
2018-03-20T08:18:30.371Z,99.90
2018-03-20T08:20:58.789Z,99.90
2018-03-20T08:23:27.162Z,99.90
2018-03-20T08:25:55.581Z,99.90
2018-03-20T08:28:23.931Z,99.90
2018-03-20T08:30:52.304Z,99.90
2018-03-20T08:33:20.633Z,99.90
2018-03-20T08:35:48.989Z,99.90
2018-03-20T08:38:17.324Z,99.90
2018-03-20T08:40:45.664Z,99.90
2018-03-20T08:43:14.015Z,99.90
2018-03-20T08:45:42.536Z,99.90
2018-03-20T08:48:10.873Z,99.90
2018-03-20T08:50:39.518Z,99.90
2018-03-20T08:53:08.014Z,99.60
2018-03-20T08:55:36.349Z,99.60
2018-03-20T08:58:04.793Z,99.70
2018-03-20T09:00:33.186Z,99.50
2018-03-20T09:03:01.489Z,99.40
2018-03-20T09:05:29.812Z,99.50
2018-03-20T09:07:58.153Z,98.90
2018-03-20T09:10:26.481Z,98.10
2018-03-20T09:12:54.827Z,98.00
2018-03-20T09:15:23.159Z,97.90
2018-03-20T09:17:51.537Z,97.10
2018-03-20T09:20:19.872Z,96.30
2018-03-20T09:22:48.208Z,95.90
2018-03-20T09:25:16.571Z,95.90
2018-03-20T09:27:44.927Z,95.90
2018-03-20T09:30:13.281Z,95.50
2018-03-20T09:32:41.608Z,95.90
2018-03-20T09:35:09.976Z,95.40
2018-03-20T09:37:38.303Z,95.10
2018-03-20T09:40:06.635Z,94.80
2018-03-20T09:42:34.963Z,95.20
2018-03-20T09:45:03.343Z,94.50
2018-03-20T09:47:31.816Z,94.00
2018-03-20T09:50:00.487Z,92.70
2018-03-20T09:52:28.824Z,92.10
2018-03-20T09:54:57.197Z,90.80
2018-03-20T09:57:25.528Z,90.50
2018-03-20T09:59:54.510Z,90.10
2018-03-20T10:02:22.859Z,89.20
2018-03-20T10:04:51.649Z,86.40
2018-03-20T10:07:19.977Z,84.80
2018-03-20T10:09:48.331Z,80.80
2018-03-20T10:12:16.668Z,79.30
2018-03-20T10:14:45.373Z,77.30
2018-03-20T10:17:13.722Z,77.90
2018-03-20T10:19:42.070Z,77.20
2018-03-20T10:22:10.427Z,75.10
2018-03-20T10:24:38.761Z,72.00
2018-03-20T10:27:07.108Z,70.00
2018-03-20T10:29:35.472Z,68.70
2018-03-20T10:32:03.844Z,68.60
2018-03-20T10:34:32.248Z,65.60
2018-03-20T10:37:00.598Z,59.00
2018-03-20T10:39:28.960Z,57.80
2018-03-20T10:41:57.298Z,55.20
2018-03-20T10:44:25.839Z,51.50
2018-03-20T10:46:54.173Z,48.80
2018-03-20T10:49:22.664Z,46.90
2018-03-20T10:51:51.005Z,46.90
2018-03-20T10:54:19.440Z,45.00
2018-03-20T10:56:47.839Z,45.40
2018-03-20T10:59:16.543Z,48.70
2018-03-20T11:01:45.777Z,48.80
2018-03-20T11:04:14.180Z,47.50
2018-03-20T11:06:42.515Z,47.00
2018-03-20T11:09:10.856Z,46.30
2018-03-20T11:11:39.197Z,45.50
2018-03-20T11:14:07.582Z,46.60
2018-03-20T11:16:35.934Z,45.00
2018-03-20T11:19:04.282Z,42.90
2018-03-20T11:21:32.720Z,41.80
2018-03-20T11:24:01.652Z,41.70
2018-03-20T11:26:29.983Z,43.70
2018-03-20T11:28:58.526Z,45.70
2018-03-20T11:31:27.115Z,45.30
2018-03-20T11:33:56.036Z,44.50
2018-03-20T11:36:24.391Z,43.30
2018-03-20T11:38:52.727Z,42.30
2018-03-20T11:41:21.090Z,40.00
2018-03-20T11:43:50.090Z,41.10
2018-03-20T11:46:18.657Z,38.80
2018-03-20T11:48:47.046Z,37.40
2018-03-20T11:51:15.397Z,38.50
2018-03-20T11:53:43.785Z,38.60
2018-03-20T11:56:12.153Z,40.00
2018-03-20T11:58:40.528Z,39.70
2018-03-20T12:01:08.889Z,41.30
2018-03-20T12:03:37.220Z,41.10
2018-03-20T12:06:05.588Z,39.80
2018-03-20T12:08:45.616Z,39.30
2018-03-20T12:11:14.192Z,39.10
2018-03-20T12:13:42.564Z,38.90
2018-03-20T12:16:10.989Z,39.00
2018-03-20T12:18:39.319Z,37.70
2018-03-20T12:21:07.743Z,37.10
2018-03-20T12:23:36.086Z,37.50
2018-03-20T12:26:04.431Z,36.90
2018-03-20T12:28:32.782Z,34.80
2018-03-20T12:31:01.134Z,35.70
2018-03-20T12:33:29.562Z,34.30
2018-03-20T12:35:57.905Z,38.20
2018-03-20T12:38:26.258Z,39.30
2018-03-20T12:40:54.613Z,39.70
2018-03-20T12:43:22.999Z,39.50
2018-03-20T12:45:51.481Z,38.00
2018-03-20T12:48:19.916Z,37.70
2018-03-20T12:50:48.261Z,38.10
2018-03-20T12:53:16.608Z,38.70
2018-03-20T12:55:44.954Z,39.70
2018-03-20T12:58:13.287Z,39.20
2018-03-20T13:00:41.648Z,39.20
2018-03-20T13:03:10.049Z,37.80
2018-03-20T13:05:38.727Z,38.20
2018-03-20T13:08:07.086Z,36.70
2018-03-20T13:10:35.415Z,35.40
2018-03-20T13:13:03.774Z,34.20
2018-03-20T13:15:32.172Z,33.10
2018-03-20T13:18:00.868Z,32.60
2018-03-20T13:20:29.413Z,31.80
2018-03-20T13:22:57.749Z,30.50
2018-03-20T13:25:26.715Z,29.30
2018-03-20T13:27:55.090Z,29.30
2018-03-20T13:30:23.564Z,28.90
2018-03-20T13:32:52.120Z,29.00
2018-03-20T13:35:21.258Z,29.30
2018-03-20T13:37:49.668Z,29.50
2018-03-20T13:40:18.045Z,29.60
2018-03-20T13:42:46.564Z,29.50
2018-03-20T13:45:15.030Z,29.90
2018-03-20T13:47:43.438Z,29.50
2018-03-20T13:50:11.814Z,29.10
2018-03-20T13:52:40.606Z,28.80
2018-03-20T13:55:08.989Z,29.10
2018-03-20T13:57:37.384Z,28.50
2018-03-20T14:00:05.851Z,28.60
2018-03-20T14:02:34.239Z,29.00
2018-03-20T14:05:03.765Z,29.20
2018-03-20T14:07:32.196Z,29.60
2018-03-20T14:10:00.532Z,29.00
2018-03-20T14:12:28.930Z,30.20
2018-03-20T14:14:57.325Z,29.00
2018-03-20T14:17:25.668Z,28.90
2018-03-20T14:19:54.120Z,27.90
2018-03-20T14:22:22.516Z,28.00
2018-03-20T14:24:50.891Z,28.00
2018-03-20T14:27:19.257Z,27.80
2018-03-20T14:29:48.276Z,27.70
2018-03-20T14:32:16.624Z,26.40
2018-03-20T14:34:45.053Z,26.20
2018-03-20T14:37:13.480Z,26.20
2018-03-20T14:39:41.883Z,26.00
2018-03-20T14:42:10.497Z,26.60
2018-03-20T14:44:38.858Z,25.30
2018-03-20T14:47:07.250Z,25.10
2018-03-20T14:49:35.726Z,25.10
2018-03-20T14:52:04.094Z,25.40
2018-03-20T14:54:32.464Z,25.80
2018-03-20T14:57:00.791Z,25.90
2018-03-20T14:59:29.785Z,25.70
2018-03-20T15:01:58.147Z,25.50
2018-03-20T15:04:26.520Z,25.60
2018-03-20T15:06:54.897Z,25.50
2018-03-20T15:09:23.265Z,24.90
2018-03-20T15:11:51.613Z,25.00
2018-03-20T15:14:19.954Z,24.60
2018-03-20T15:16:48.545Z,24.00
2018-03-20T15:19:16.885Z,24.40
2018-03-20T15:21:45.254Z,24.60
2018-03-20T15:24:13.764Z,24.80
2018-03-20T15:26:42.134Z,24.90
2018-03-20T15:29:10.490Z,25.00
2018-03-20T15:31:38.853Z,24.80
2018-03-20T15:34:07.703Z,25.40
2018-03-20T15:36:36.214Z,25.10
2018-03-20T15:39:04.590Z,24.90
2018-03-20T15:41:32.953Z,24.80
2018-03-20T15:44:01.361Z,24.60
2018-03-20T15:46:29.726Z,25.40
2018-03-20T15:48:58.158Z,25.60
2018-03-20T15:51:26.533Z,26.10
2018-03-20T15:53:54.863Z,26.50
2018-03-20T15:56:23.269Z,26.90
2018-03-20T15:58:51.736Z,27.00
2018-03-20T16:01:20.088Z,27.20
2018-03-20T16:03:48.460Z,27.70
2018-03-20T16:06:16.806Z,27.80
2018-03-20T16:08:45.153Z,28.40
2018-03-20T16:11:13.520Z,28.00
2018-03-20T16:13:41.875Z,27.80
2018-03-20T16:16:10.248Z,28.40
2018-03-20T16:18:38.723Z,28.60
2018-03-20T16:21:07.064Z,29.00
2018-03-20T16:23:35.421Z,28.60
2018-03-20T16:26:03.788Z,28.30
2018-03-20T16:28:32.121Z,28.60
2018-03-20T16:31:00.505Z,28.80
2018-03-20T16:33:28.837Z,29.00
2018-03-20T16:35:57.209Z,29.40
2018-03-20T16:38:25.566Z,30.00
2018-03-20T16:40:53.905Z,30.30
2018-03-20T16:43:22.438Z,30.80
2018-03-20T16:45:50.783Z,31.50
2018-03-20T16:48:19.159Z,30.80
2018-03-20T16:50:47.564Z,31.30
2018-03-20T16:53:15.909Z,31.30
2018-03-20T16:55:44.249Z,32.90
2018-03-20T16:58:12.594Z,34.00
2018-03-20T17:00:40.950Z,35.10
2018-03-20T17:03:09.312Z,36.20
2018-03-20T17:05:37.660Z,37.00
2018-03-20T17:08:05.990Z,37.90
2018-03-20T17:10:34.555Z,38.30
2018-03-20T17:13:03.001Z,39.50
2018-03-20T17:15:31.392Z,40.30
2018-03-20T17:17:59.743Z,41.30
2018-03-20T17:20:28.137Z,41.80
2018-03-20T17:22:56.477Z,42.10
2018-03-20T17:25:24.941Z,42.70
2018-03-20T17:27:53.366Z,42.90
2018-03-20T17:30:21.696Z,43.00
2018-03-20T17:32:50.057Z,43.60
2018-03-20T17:35:18.443Z,44.50
2018-03-20T17:37:46.815Z,45.40
2018-03-20T17:40:15.154Z,45.70
2018-03-20T17:42:43.497Z,46.40
2018-03-20T17:45:12.002Z,46.90
2018-03-20T17:47:40.323Z,47.30
2018-03-20T17:50:08.691Z,48.30
2018-03-20T17:52:37.027Z,49.20
2018-03-20T17:55:05.370Z,49.80
2018-03-20T17:57:33.813Z,50.50
2018-03-20T18:00:02.161Z,51.10
2018-03-20T18:02:30.641Z,51.80
2018-03-20T18:04:59.008Z,52.60
2018-03-20T18:07:27.354Z,53.30
2018-03-20T18:09:55.714Z,54.30
2018-03-20T18:12:24.069Z,54.70
2018-03-20T18:14:52.429Z,55.50
2018-03-20T18:17:20.793Z,56.60
2018-03-20T18:19:49.198Z,57.50
2018-03-20T18:22:17.565Z,58.10
2018-03-20T18:24:45.979Z,58.70
2018-03-20T18:27:14.319Z,59.60
2018-03-20T18:29:42.665Z,60.40
2018-03-20T18:32:10.996Z,61.80
2018-03-20T18:34:39.424Z,63.20
2018-03-20T18:37:07.763Z,64.30
2018-03-20T18:39:36.114Z,65.70
2018-03-20T18:42:04.789Z,67.10
2018-03-20T18:44:33.139Z,68.70
2018-03-20T18:47:02.277Z,68.60
2018-03-20T18:49:30.630Z,70.50
2018-03-20T18:51:59.044Z,71.50
2018-03-20T18:54:27.538Z,71.00
2018-03-20T18:56:55.948Z,72.30
2018-03-20T18:59:24.338Z,72.10
2018-03-20T19:01:52.691Z,72.60
2018-03-20T19:04:21.256Z,73.00
2018-03-20T19:06:49.624Z,73.30
2018-03-20T19:09:18.048Z,74.10
2018-03-20T19:11:46.377Z,74.20
2018-03-20T19:14:14.808Z,74.70
2018-03-20T19:16:43.161Z,75.40
2018-03-20T19:19:11.488Z,75.80
2018-03-20T19:21:39.893Z,76.10
2018-03-20T19:24:08.648Z,76.10
2018-03-20T19:26:37.101Z,76.80
2018-03-20T19:29:05.507Z,76.90
2018-03-20T19:31:33.972Z,77.20
2018-03-20T19:34:02.325Z,76.60
2018-03-20T19:36:30.666Z,76.80
2018-03-20T19:38:59.032Z,77.30
2018-03-20T19:41:27.482Z,77.30
2018-03-20T19:43:55.938Z,77.60
2018-03-20T19:46:24.277Z,77.70
2018-03-20T19:48:52.743Z,78.10
2018-03-20T19:51:21.110Z,77.90
2018-03-20T19:53:49.486Z,78.10
2018-03-20T19:56:17.921Z,78.50
2018-03-20T19:58:46.278Z,78.90
2018-03-20T20:01:14.622Z,79.40
2018-03-20T20:03:43.008Z,79.40
2018-03-20T20:06:11.445Z,79.20
2018-03-20T20:08:40.062Z,79.50
2018-03-20T20:11:08.390Z,79.30
2018-03-20T20:13:36.773Z,79.40
2018-03-20T20:16:05.488Z,79.70
2018-03-20T20:18:34.326Z,79.50
2018-03-20T20:21:02.654Z,79.50
2018-03-20T20:23:31.106Z,79.70
2018-03-20T20:25:59.683Z,80.20
2018-03-20T20:28:28.057Z,79.70
2018-03-20T20:30:56.426Z,80.20
2018-03-20T20:33:24.902Z,80.20
2018-03-20T20:35:53.249Z,79.80
2018-03-20T20:38:21.607Z,79.60
2018-03-20T20:40:50.136Z,79.80
2018-03-20T20:43:18.482Z,79.90
2018-03-20T20:45:46.855Z,80.00
2018-03-20T20:48:15.238Z,79.90
2018-03-20T20:50:43.587Z,80.30
2018-03-20T20:53:11.926Z,80.70
2018-03-20T20:55:40.309Z,81.00
2018-03-20T20:58:08.726Z,81.10
2018-03-20T21:00:37.052Z,81.10
2018-03-20T21:03:05.419Z,81.60
2018-03-20T21:05:33.768Z,81.40
2018-03-20T21:08:02.207Z,81.70
2018-03-20T21:10:30.519Z,82.10
2018-03-20T21:12:58.960Z,82.20
2018-03-20T21:15:27.463Z,82.30
2018-03-20T21:17:55.977Z,83.00
2018-03-20T21:20:24.301Z,82.80
2018-03-20T21:22:52.910Z,82.80
2018-03-20T21:25:21.438Z,83.10
2018-03-20T21:27:50.103Z,83.90
2018-03-20T21:30:18.464Z,84.20
2018-03-20T21:32:46.847Z,84.60
2018-03-20T21:35:15.220Z,84.70
2018-03-20T21:37:43.627Z,85.30
2018-03-20T21:40:12.435Z,85.50
2018-03-20T21:42:40.819Z,85.80
2018-03-20T21:45:09.200Z,86.10
2018-03-20T21:47:37.560Z,86.30
2018-03-20T21:50:05.913Z,86.70
2018-03-20T21:52:34.699Z,87.50
2018-03-20T21:55:03.039Z,86.90
2018-03-20T21:57:31.404Z,87.10
2018-03-20T21:59:59.758Z,87.90
2018-03-20T22:02:28.116Z,88.00
2018-03-20T22:04:56.708Z,88.10
2018-03-20T22:07:25.335Z,88.70
2018-03-20T22:09:53.662Z,89.00
2018-03-20T22:12:22.046Z,89.40
2018-03-20T22:14:50.388Z,89.60
2018-03-20T22:17:18.789Z,90.00
2018-03-20T22:19:47.144Z,90.20
2018-03-20T22:22:15.495Z,90.20
2018-03-20T22:24:43.842Z,90.50
2018-03-20T22:27:12.173Z,90.70
2018-03-20T22:29:40.550Z,90.60
2018-03-20T22:32:08.920Z,91.00
2018-03-20T22:34:37.252Z,91.10
2018-03-20T22:37:05.665Z,91.30
2018-03-20T22:39:33.999Z,91.40
2018-03-20T22:42:02.651Z,91.20
2018-03-20T22:44:31.000Z,91.20
2018-03-20T22:46:59.365Z,91.40
2018-03-20T22:49:27.752Z,91.50
2018-03-20T22:51:56.110Z,91.70
2018-03-20T22:54:24.444Z,91.40
2018-03-20T22:56:52.775Z,91.50
2018-03-20T22:59:21.141Z,91.60
2018-03-20T23:01:49.483Z,91.50
2018-03-20T23:04:17.815Z,91.40
2018-03-20T23:06:46.186Z,91.70
2018-03-20T23:09:14.531Z,91.40
2018-03-20T23:11:43.133Z,91.80
2018-03-20T23:14:11.529Z,92.10
2018-03-20T23:16:39.836Z,92.30
2018-03-20T23:19:08.166Z,92.10
2018-03-20T23:21:36.822Z,92.10
2018-03-20T23:24:05.358Z,92.50
2018-03-20T23:26:33.708Z,92.70
2018-03-20T23:29:02.059Z,92.60
2018-03-20T23:31:30.395Z,92.50
2018-03-20T23:33:58.748Z,92.40
2018-03-20T23:36:27.104Z,92.40
2018-03-20T23:38:55.638Z,92.80
2018-03-20T23:41:24.003Z,92.90
2018-03-20T23:43:52.349Z,93.50
2018-03-20T23:46:20.702Z,93.40
2018-03-20T23:48:49.032Z,93.60
2018-03-20T23:51:17.481Z,93.80
2018-03-20T23:53:45.824Z,94.20
2018-03-20T23:56:14.180Z,94.00
2018-03-20T23:58:42.517Z,93.60
